sensor_id;sensor_type;location;lat;lon;timestamp;pressure;altitude;pressure_sealevel;temperature;humidity
10097;BME280;5087;42.662;23.466;2023-08-12T00:02:36;95944.06;;;15.18;100.00
10097;BME280;5087;42.662;23.466;2023-08-12T00:05:04;95939.25;;;15.15;100.00
10097;BME280;5087;42.662;23.466;2023-08-12T00:07:32;95941.59;;;15.04;100.00
10097;BME280;5087;42.662;23.466;2023-08-12T00:09:59;95946.72;;;15.06;100.00
10097;BME280;5087;42.662;23.466;2023-08-12T00:12:27;95933.66;;;15.12;100.00
10097;BME280;5087;42.662;23.466;2023-08-12T00:14:55;95939.25;;;15.15;100.00
10097;BME280;5087;42.662;23.466;2023-08-12T00:17:22;95931.78;;;15.25;100.00
10097;BME280;5087;42.662;23.466;2023-08-12T00:19:50;95922.34;;;15.22;100.00
10097;BME280;5087;42.662;23.466;2023-08-12T00:22:18;95931.41;;;15.14;100.00
10097;BME280;5087;42.662;23.466;2023-08-12T00:24:45;95937.78;;;14.97;100.00
10097;BME280;5087;42.662;23.466;2023-08-12T00:27:16;95915.22;;;14.79;100.00
10097;BME280;5087;42.662;23.466;2023-08-12T00:29:44;95924.38;;;14.35;100.00
10097;BME280;5087;42.662;23.466;2023-08-12T00:32:11;95925.16;;;13.97;100.00
10097;BME280;5087;42.662;23.466;2023-08-12T00:34:42;95932.72;;;13.91;100.00
10097;BME280;5087;42.662;23.466;2023-08-12T00:37:10;95937.53;;;13.77;100.00
10097;BME280;5087;42.662;23.466;2023-08-12T00:39:38;95933.38;;;13.71;100.00
10097;BME280;5087;42.662;23.466;2023-08-12T00:42:06;95939.50;;;13.59;100.00
10097;BME280;5087;42.662;23.466;2023-08-12T00:44:34;95941.13;;;13.51;100.00
10097;BME280;5087;42.662;23.466;2023-08-12T00:47:01;95939.50;;;13.50;100.00
10097;BME280;5087;42.662;23.466;2023-08-12T00:49:31;95941.91;;;13.52;100.00
10097;BME280;5087;42.662;23.466;2023-08-12T00:52:00;95933.75;;;13.43;100.00
10097;BME280;5087;42.662;23.466;2023-08-12T00:54:28;95923.13;;;13.33;100.00
10097;BME280;5087;42.662;23.466;2023-08-12T00:56:58;95930.81;;;13.30;100.00
10097;BME280;5087;42.662;23.466;2023-08-12T00:59:25;95937.25;;;13.35;100.00
10097;BME280;5087;42.662;23.466;2023-08-12T01:01:53;95924.41;;;13.26;100.00
10097;BME280;5087;42.662;23.466;2023-08-12T01:04:20;95921.03;;;13.29;100.00
10097;BME280;5087;42.662;23.466;2023-08-12T01:06:47;95920.56;;;13.27;100.00
10097;BME280;5087;42.662;23.466;2023-08-12T01:09:15;95924.88;;;13.28;100.00
10097;BME280;5087;42.662;23.466;2023-08-12T01:11:49;95923.13;;;13.24;100.00
10097;BME280;5087;42.662;23.466;2023-08-12T01:14:23;95936.59;;;13.20;100.00
10097;BME280;5087;42.662;23.466;2023-08-12T01:16:56;95914.44;;;13.04;100.00
10097;BME280;5087;42.662;23.466;2023-08-12T01:19:30;95926.97;;;13.14;100.00
10097;BME280;5087;42.662;23.466;2023-08-12T01:22:00;95917.97;;;13.05;100.00
10097;BME280;5087;42.662;23.466;2023-08-12T01:24:33;95919.44;;;13.02;100.00
10097;BME280;5087;42.662;23.466;2023-08-12T01:27:03;95919.88;;;13.04;100.00
10097;BME280;5087;42.662;23.466;2023-08-12T01:29:31;95936.72;;;13.06;100.00
10097;BME280;5087;42.662;23.466;2023-08-12T01:32:05;95927.59;;;13.02;100.00
10097;BME280;5087;42.662;23.466;2023-08-12T01:34:40;95896.94;;;12.79;100.00
10097;BME280;5087;42.662;23.466;2023-08-12T01:37:19;95915.91;;;13.19;100.00
10097;BME280;5087;42.662;23.466;2023-08-12T01:39:52;95907.53;;;12.98;100.00
10097;BME280;5087;42.662;23.466;2023-08-12T01:42:21;95913.97;;;13.02;100.00
10097;BME280;5087;42.662;23.466;2023-08-12T01:44:48;95908.00;;;12.91;100.00
10097;BME280;5087;42.662;23.466;2023-08-12T01:47:16;95914.59;;;13.08;100.00
10097;BME280;5087;42.662;23.466;2023-08-12T01:49:43;95923.75;;;13.21;100.00
10097;BME280;5087;42.662;23.466;2023-08-12T01:52:10;95922.78;;;13.25;100.00
10097;BME280;5087;42.662;23.466;2023-08-12T01:54:38;95920.69;;;13.13;100.00
10097;BME280;5087;42.662;23.466;2023-08-12T01:57:07;95903.88;;;13.03;100.00
10097;BME280;5087;42.662;23.466;2023-08-12T01:59:34;95926.28;;;12.99;100.00
10097;BME280;5087;42.662;23.466;2023-08-12T02:02:02;95923.22;;;12.92;100.00
10097;BME280;5087;42.662;23.466;2023-08-12T02:04:31;95929.19;;;12.86;100.00
10097;BME280;5087;42.662;23.466;2023-08-12T02:06:58;95922.06;;;12.76;100.00
10097;BME280;5087;42.662;23.466;2023-08-12T02:09:26;95916.63;;;12.67;100.00
10097;BME280;5087;42.662;23.466;2023-08-12T02:11:53;95932.47;;;12.65;100.00
10097;BME280;5087;42.662;23.466;2023-08-12T02:14:23;95928.78;;;12.61;100.00
10097;BME280;5087;42.662;23.466;2023-08-12T02:16:50;95931.31;;;12.48;100.00
10097;BME280;5087;42.662;23.466;2023-08-12T02:19:18;95931.91;;;12.37;100.00
10097;BME280;5087;42.662;23.466;2023-08-12T02:21:45;95928.19;;;12.32;100.00
10097;BME280;5087;42.662;23.466;2023-08-12T02:24:16;95933.16;;;12.30;100.00
10097;BME280;5087;42.662;23.466;2023-08-12T02:26:43;95935.22;;;12.25;100.00
10097;BME280;5087;42.662;23.466;2023-08-12T02:29:10;95938.53;;;12.13;100.00
10097;BME280;5087;42.662;23.466;2023-08-12T02:31:42;95944.59;;;12.10;100.00
10097;BME280;5087;42.662;23.466;2023-08-12T02:34:09;95946.38;;;12.14;100.00
10097;BME280;5087;42.662;23.466;2023-08-12T02:36:36;95940.75;;;12.11;100.00
10097;BME280;5087;42.662;23.466;2023-08-12T02:39:04;95942.22;;;12.17;100.00
10097;BME280;5087;42.662;23.466;2023-08-12T02:41:31;95944.94;;;12.17;100.00
10097;BME280;5087;42.662;23.466;2023-08-12T02:43:58;95939.91;;;12.01;100.00
10097;BME280;5087;42.662;23.466;2023-08-12T02:46:26;95942.31;;;12.03;100.00
10097;BME280;5087;42.662;23.466;2023-08-12T02:48:54;95936.78;;;11.94;100.00
10097;BME280;5087;42.662;23.466;2023-08-12T02:51:21;95920.53;;;11.80;100.00
10097;BME280;5087;42.662;23.466;2023-08-12T02:53:49;95950.41;;;11.94;100.00
10097;BME280;5087;42.662;23.466;2023-08-12T02:56:16;95939.56;;;11.80;100.00
10097;BME280;5087;42.662;23.466;2023-08-12T02:58:43;95953.38;;;11.84;100.00
10097;BME280;5087;42.662;23.466;2023-08-12T03:01:11;95952.63;;;11.69;100.00
10097;BME280;5087;42.662;23.466;2023-08-12T03:03:41;95958.44;;;11.77;100.00
10097;BME280;5087;42.662;23.466;2023-08-12T03:06:10;95941.38;;;11.62;100.00
10097;BME280;5087;42.662;23.466;2023-08-12T03:08:38;95957.47;;;11.72;100.00
10097;BME280;5087;42.662;23.466;2023-08-12T03:11:07;95963.41;;;11.75;100.00
10097;BME280;5087;42.662;23.466;2023-08-12T03:13:34;95958.75;;;11.75;100.00
10097;BME280;5087;42.662;23.466;2023-08-12T03:16:02;95971.56;;;11.75;100.00
10097;BME280;5087;42.662;23.466;2023-08-12T03:18:30;95970.56;;;11.70;100.00
10097;BME280;5087;42.662;23.466;2023-08-12T03:20:57;95947.28;;;11.55;100.00
10097;BME280;5087;42.662;23.466;2023-08-12T03:23:26;95959.63;;;11.62;100.00
10097;BME280;5087;42.662;23.466;2023-08-12T03:25:54;95936.03;;;11.48;100.00
10097;BME280;5087;42.662;23.466;2023-08-12T03:28:21;95966.19;;;11.61;100.00
10097;BME280;5087;42.662;23.466;2023-08-12T03:30:52;95969.63;;;11.52;100.00
10097;BME280;5087;42.662;23.466;2023-08-12T03:33:23;95965.13;;;11.48;100.00
10097;BME280;5087;42.662;23.466;2023-08-12T03:35:50;95952.75;;;11.42;100.00
10097;BME280;5087;42.662;23.466;2023-08-12T03:38:19;95964.84;;;11.49;100.00
10097;BME280;5087;42.662;23.466;2023-08-12T03:40:47;95968.03;;;11.51;100.00
10097;BME280;5087;42.662;23.466;2023-08-12T03:43:17;95968.41;;;11.59;100.00
10097;BME280;5087;42.662;23.466;2023-08-12T03:45:47;95968.75;;;11.66;100.00
10097;BME280;5087;42.662;23.466;2023-08-12T03:48:17;95950.28;;;11.54;100.00
10097;BME280;5087;42.662;23.466;2023-08-12T03:50:45;95974.75;;;11.77;100.00
10097;BME280;5087;42.662;23.466;2023-08-12T03:53:13;95968.75;;;11.66;100.00
10097;BME280;5087;42.662;23.466;2023-08-12T03:55:41;95976.00;;;11.70;100.00
10097;BME280;5087;42.662;23.466;2023-08-12T03:58:12;95967.16;;;11.65;100.00
10097;BME280;5087;42.662;23.466;2023-08-12T04:00:41;95964.88;;;11.81;100.00
10097;BME280;5087;42.662;23.466;2023-08-12T04:03:10;95975.97;;;12.07;100.00
10097;BME280;5087;42.662;23.466;2023-08-12T04:05:48;95960.56;;;12.02;100.00
10097;BME280;5087;42.662;23.466;2023-08-12T04:08:16;95969.44;;;12.17;100.00
10097;BME280;5087;42.662;23.466;2023-08-12T04:10:45;95962.13;;;12.26;100.00
10097;BME280;5087;42.662;23.466;2023-08-12T04:13:15;95969.84;;;12.33;100.00
10097;BME280;5087;42.662;23.466;2023-08-12T04:15:42;95963.31;;;12.43;100.00
10097;BME280;5087;42.662;23.466;2023-08-12T04:18:10;95971.75;;;12.73;100.00
10097;BME280;5087;42.662;23.466;2023-08-12T04:20:40;95963.91;;;12.71;100.00
10097;BME280;5087;42.662;23.466;2023-08-12T04:23:08;95960.03;;;12.63;100.00
10097;BME280;5087;42.662;23.466;2023-08-12T04:25:35;95969.22;;;12.85;100.00
10097;BME280;5087;42.662;23.466;2023-08-12T04:28:03;95979.75;;;12.69;100.00
10097;BME280;5087;42.662;23.466;2023-08-12T04:30:34;95988.22;;;12.59;100.00
10097;BME280;5087;42.662;23.466;2023-08-12T04:33:03;95986.06;;;12.47;100.00
10097;BME280;5087;42.662;23.466;2023-08-12T04:35:31;95980.72;;;12.64;100.00
10097;BME280;5087;42.662;23.466;2023-08-12T04:38:01;95975.09;;;12.70;100.00
10097;BME280;5087;42.662;23.466;2023-08-12T04:40:28;95975.00;;;12.92;100.00
10097;BME280;5087;42.662;23.466;2023-08-12T04:42:56;95982.00;;;12.76;100.00
10097;BME280;5087;42.662;23.466;2023-08-12T04:45:23;95990.91;;;12.90;100.00
10097;BME280;5087;42.662;23.466;2023-08-12T04:47:55;95981.50;;;13.14;100.00
10097;BME280;5087;42.662;23.466;2023-08-12T04:50:22;95983.06;;;13.15;100.00
10097;BME280;5087;42.662;23.466;2023-08-12T04:52:50;95951.16;;;12.98;100.00
10097;BME280;5087;42.662;23.466;2023-08-12T04:55:19;95986.28;;;13.17;100.00
10097;BME280;5087;42.662;23.466;2023-08-12T04:57:47;95958.56;;;13.33;100.00
10097;BME280;5087;42.662;23.466;2023-08-12T05:00:14;95981.22;;;13.51;100.00
10097;BME280;5087;42.662;23.466;2023-08-12T05:02:42;95951.84;;;13.56;100.00
10097;BME280;5087;42.662;23.466;2023-08-12T05:05:11;95987.59;;;13.99;100.00
10097;BME280;5087;42.662;23.466;2023-08-12T05:07:41;95980.88;;;14.05;100.00
10097;BME280;5087;42.662;23.466;2023-08-12T05:10:11;95989.69;;;14.02;100.00
10097;BME280;5087;42.662;23.466;2023-08-12T05:12:39;95955.50;;;13.96;100.00
10097;BME280;5087;42.662;23.466;2023-08-12T05:15:08;95979.19;;;14.21;100.00
10097;BME280;5087;42.662;23.466;2023-08-12T05:17:35;95981.72;;;14.44;100.00
10097;BME280;5087;42.662;23.466;2023-08-12T05:20:03;95981.19;;;14.60;100.00
10097;BME280;5087;42.662;23.466;2023-08-12T05:22:33;95980.56;;;14.93;100.00
10097;BME280;5087;42.662;23.466;2023-08-12T05:25:00;95970.19;;;15.07;100.00
10097;BME280;5087;42.662;23.466;2023-08-12T05:27:27;95971.09;;;15.41;100.00
10097;BME280;5087;42.662;23.466;2023-08-12T05:29:55;95977.72;;;15.61;100.00
10097;BME280;5087;42.662;23.466;2023-08-12T05:32:22;95979.97;;;15.80;100.00
10097;BME280;5087;42.662;23.466;2023-08-12T05:34:50;95978.66;;;15.87;100.00
10097;BME280;5087;42.662;23.466;2023-08-12T05:37:17;95971.69;;;16.23;100.00
10097;BME280;5087;42.662;23.466;2023-08-12T05:39:46;95971.97;;;16.55;100.00
10097;BME280;5087;42.662;23.466;2023-08-12T05:42:13;95974.50;;;16.85;100.00
10097;BME280;5087;42.662;23.466;2023-08-12T05:44:41;95984.47;;;17.02;100.00
10097;BME280;5087;42.662;23.466;2023-08-12T05:47:09;95955.00;;;17.23;100.00
10097;BME280;5087;42.662;23.466;2023-08-12T05:49:36;95973.22;;;17.85;100.00
10097;BME280;5087;42.662;23.466;2023-08-12T05:52:03;95977.47;;;17.82;100.00
10097;BME280;5087;42.662;23.466;2023-08-12T05:54:31;95972.03;;;17.98;100.00
10097;BME280;5087;42.662;23.466;2023-08-12T05:56:59;95949.16;;;17.94;100.00
10097;BME280;5087;42.662;23.466;2023-08-12T05:59:26;95967.13;;;17.63;100.00
10097;BME280;5087;42.662;23.466;2023-08-12T06:01:54;95965.88;;;18.17;100.00
10097;BME280;5087;42.662;23.466;2023-08-12T06:04:21;95962.13;;;18.54;100.00
10097;BME280;5087;42.662;23.466;2023-08-12T06:06:48;95956.63;;;18.70;100.00
10097;BME280;5087;42.662;23.466;2023-08-12T06:09:16;95958.84;;;18.48;100.00
10097;BME280;5087;42.662;23.466;2023-08-12T06:11:43;95957.06;;;18.88;100.00
10097;BME280;5087;42.662;23.466;2023-08-12T06:14:14;95947.50;;;18.98;100.00
10097;BME280;5087;42.662;23.466;2023-08-12T06:16:41;95961.53;;;19.28;100.00
10097;BME280;5087;42.662;23.466;2023-08-12T06:19:08;95945.13;;;19.87;100.00
10097;BME280;5087;42.662;23.466;2023-08-12T06:21:35;95947.44;;;20.28;100.00
10097;BME280;5087;42.662;23.466;2023-08-12T06:24:03;95943.22;;;20.34;100.00
10097;BME280;5087;42.662;23.466;2023-08-12T06:26:30;95937.69;;;20.11;100.00
10097;BME280;5087;42.662;23.466;2023-08-12T06:28:58;95941.41;;;20.42;100.00
10097;BME280;5087;42.662;23.466;2023-08-12T06:31:26;95924.06;;;20.18;100.00
10097;BME280;5087;42.662;23.466;2023-08-12T06:33:54;95923.16;;;19.91;100.00
10097;BME280;5087;42.662;23.466;2023-08-12T06:36:22;95913.41;;;20.40;100.00
10097;BME280;5087;42.662;23.466;2023-08-12T06:38:50;95925.91;;;20.34;100.00
10097;BME280;5087;42.662;23.466;2023-08-12T06:41:17;95930.84;;;20.71;100.00
10097;BME280;5087;42.662;23.466;2023-08-12T06:43:47;95925.78;;;20.73;100.00
10097;BME280;5087;42.662;23.466;2023-08-12T06:46:15;95921.88;;;21.01;100.00
10097;BME280;5087;42.662;23.466;2023-08-12T06:48:43;95919.75;;;21.17;100.00
10097;BME280;5087;42.662;23.466;2023-08-12T06:51:10;95932.53;;;20.76;100.00
10097;BME280;5087;42.662;23.466;2023-08-12T06:53:39;95924.47;;;19.81;100.00
10097;BME280;5087;42.662;23.466;2023-08-12T06:56:06;95924.94;;;19.64;100.00
10097;BME280;5087;42.662;23.466;2023-08-12T06:58:33;95924.16;;;19.27;100.00
10097;BME280;5087;42.662;23.466;2023-08-12T07:01:01;95905.06;;;19.54;100.00
10097;BME280;5087;42.662;23.466;2023-08-12T07:03:28;95906.09;;;20.28;100.00
10097;BME280;5087;42.662;23.466;2023-08-12T07:05:57;95919.44;;;20.03;100.00
10097;BME280;5087;42.662;23.466;2023-08-12T07:08:24;95918.00;;;20.55;100.00
10097;BME280;5087;42.662;23.466;2023-08-12T07:10:53;95916.69;;;20.26;100.00
10097;BME280;5087;42.662;23.466;2023-08-12T07:13:20;95918.22;;;20.23;100.00
10097;BME280;5087;42.662;23.466;2023-08-12T07:15:47;95905.75;;;20.53;100.00
10097;BME280;5087;42.662;23.466;2023-08-12T07:18:14;95912.47;;;20.32;100.00
10097;BME280;5087;42.662;23.466;2023-08-12T07:20:41;95914.88;;;20.34;100.00
10097;BME280;5087;42.662;23.466;2023-08-12T07:23:10;95904.13;;;20.75;100.00
10097;BME280;5087;42.662;23.466;2023-08-12T07:25:37;95916.13;;;20.63;100.00
10097;BME280;5087;42.662;23.466;2023-08-12T07:28:05;95908.91;;;20.32;100.00
10097;BME280;5087;42.662;23.466;2023-08-12T07:30:34;95908.31;;;20.42;100.00
10097;BME280;5087;42.662;23.466;2023-08-12T07:33:02;95911.75;;;21.39;100.00
10097;BME280;5087;42.662;23.466;2023-08-12T07:35:29;95898.78;;;21.43;100.00
10097;BME280;5087;42.662;23.466;2023-08-12T07:37:56;95903.22;;;21.78;100.00
10097;BME280;5087;42.662;23.466;2023-08-12T07:40:25;95897.06;;;22.75;100.00
10097;BME280;5087;42.662;23.466;2023-08-12T07:42:54;95905.94;;;21.48;100.00
10097;BME280;5087;42.662;23.466;2023-08-12T07:45:21;95900.91;;;21.88;100.00
10097;BME280;5087;42.662;23.466;2023-08-12T07:47:49;95898.09;;;22.18;100.00
10097;BME280;5087;42.662;23.466;2023-08-12T07:50:16;95886.50;;;22.95;97.65
10097;BME280;5087;42.662;23.466;2023-08-12T07:52:44;95882.25;;;23.86;93.38
10097;BME280;5087;42.662;23.466;2023-08-12T07:55:11;95886.88;;;22.90;100.00
10097;BME280;5087;42.662;23.466;2023-08-12T07:57:40;95882.13;;;23.64;98.68
10097;BME280;5087;42.662;23.466;2023-08-12T08:00:08;95878.56;;;22.41;100.00
10097;BME280;5087;42.662;23.466;2023-08-12T08:02:36;95859.47;;;21.54;100.00
10097;BME280;5087;42.662;23.466;2023-08-12T08:05:04;95875.91;;;22.52;100.00
10097;BME280;5087;42.662;23.466;2023-08-12T08:07:31;95882.47;;;23.45;100.00
10097;BME280;5087;42.662;23.466;2023-08-12T08:09:59;95855.34;;;22.08;100.00
10097;BME280;5087;42.662;23.466;2023-08-12T08:12:26;95878.41;;;23.24;98.26
10097;BME280;5087;42.662;23.466;2023-08-12T08:14:54;95878.41;;;23.24;97.35
10097;BME280;5087;42.662;23.466;2023-08-12T08:17:21;95876.38;;;23.17;89.63
10097;BME280;5087;42.662;23.466;2023-08-12T08:19:48;95873.00;;;23.57;85.02
10097;BME280;5087;42.662;23.466;2023-08-12T08:22:16;95867.31;;;24.85;81.09
10097;BME280;5087;42.662;23.466;2023-08-12T08:24:43;95869.09;;;25.64;73.18
10097;BME280;5087;42.662;23.466;2023-08-12T08:27:10;95859.81;;;25.96;72.32
10097;BME280;5087;42.662;23.466;2023-08-12T08:29:38;95854.97;;;25.04;77.95
10097;BME280;5087;42.662;23.466;2023-08-12T08:32:07;95863.44;;;25.92;73.65
10097;BME280;5087;42.662;23.466;2023-08-12T08:34:35;95865.22;;;25.43;68.12
10097;BME280;5087;42.662;23.466;2023-08-12T08:37:02;95845.97;;;25.88;66.74
10097;BME280;5087;42.662;23.466;2023-08-12T08:39:29;95854.38;;;26.41;67.28
10097;BME280;5087;42.662;23.466;2023-08-12T08:41:57;95853.22;;;25.68;66.71
10097;BME280;5087;42.662;23.466;2023-08-12T08:44:29;95824.31;;;26.21;63.15
10097;BME280;5087;42.662;23.466;2023-08-12T08:46:58;95843.13;;;26.55;59.81
10097;BME280;5087;42.662;23.466;2023-08-12T08:49:28;95843.13;;;26.55;60.63
10097;BME280;5087;42.662;23.466;2023-08-12T08:51:58;95813.78;;;24.26;67.41
10097;BME280;5087;42.662;23.466;2023-08-12T08:54:26;95839.88;;;25.16;70.05
10097;BME280;5087;42.662;23.466;2023-08-12T08:56:54;95830.19;;;25.71;68.48
10097;BME280;5087;42.662;23.466;2023-08-12T08:59:21;95835.56;;;26.00;66.70
10097;BME280;5087;42.662;23.466;2023-08-12T09:01:49;95813.69;;;26.09;64.10
10097;BME280;5087;42.662;23.466;2023-08-12T09:04:20;95806.25;;;25.88;62.40
10097;BME280;5087;42.662;23.466;2023-08-12T09:06:52;95824.31;;;26.21;60.29
10097;BME280;5087;42.662;23.466;2023-08-12T09:09:20;95828.06;;;26.49;62.25
10097;BME280;5087;42.662;23.466;2023-08-12T09:11:50;95818.38;;;25.38;62.61
10097;BME280;5087;42.662;23.466;2023-08-12T09:14:19;95837.53;;;23.95;69.48
10097;BME280;5087;42.662;23.466;2023-08-12T09:16:47;95822.50;;;24.72;65.98
10097;BME280;5087;42.662;23.466;2023-08-12T09:19:14;95816.31;;;25.60;67.39
10097;BME280;5087;42.662;23.466;2023-08-12T09:21:42;95824.88;;;24.66;67.79
10097;BME280;5087;42.662;23.466;2023-08-12T09:24:13;95793.13;;;24.92;67.70
10097;BME280;5087;42.662;23.466;2023-08-12T09:26:43;95819.84;;;25.68;65.94
10097;BME280;5087;42.662;23.466;2023-08-12T09:29:10;95806.88;;;26.14;67.43
10097;BME280;5087;42.662;23.466;2023-08-12T09:31:37;95800.88;;;25.48;62.41
10097;BME280;5087;42.662;23.466;2023-08-12T09:34:06;95809.03;;;24.52;67.24
10097;BME280;5087;42.662;23.466;2023-08-12T09:36:33;95810.22;;;24.73;66.75
10097;BME280;5087;42.662;23.466;2023-08-12T09:39:05;95801.84;;;25.02;65.00
10097;BME280;5087;42.662;23.466;2023-08-12T09:41:37;95793.94;;;24.78;63.27
10097;BME280;5087;42.662;23.466;2023-08-12T09:44:05;95783.47;;;26.04;58.14
10097;BME280;5087;42.662;23.466;2023-08-12T09:46:33;95777.97;;;27.26;52.38
10097;BME280;5087;42.662;23.466;2023-08-12T09:49:00;95779.56;;;27.61;50.43
10097;BME280;5087;42.662;23.466;2023-08-12T09:51:34;95781.75;;;27.77;51.46
10097;BME280;5087;42.662;23.466;2023-08-12T09:54:02;95762.97;;;28.33;51.12
10097;BME280;5087;42.662;23.466;2023-08-12T09:56:35;95748.94;;;28.60;51.26
10097;BME280;5087;42.662;23.466;2023-08-12T09:59:05;95775.13;;;29.14;48.64
10097;BME280;5087;42.662;23.466;2023-08-12T10:01:33;95756.41;;;29.11;47.74
10097;BME280;5087;42.662;23.466;2023-08-12T10:04:01;95763.50;;;28.95;47.13
10097;BME280;5087;42.662;23.466;2023-08-12T10:06:33;95772.09;;;27.55;47.63
10097;BME280;5087;42.662;23.466;2023-08-12T10:09:01;95757.78;;;25.85;52.56
10097;BME280;5087;42.662;23.466;2023-08-12T10:11:29;95769.09;;;25.49;52.79
10097;BME280;5087;42.662;23.466;2023-08-12T10:13:56;95772.75;;;26.06;53.21
10097;BME280;5087;42.662;23.466;2023-08-12T10:16:26;95767.13;;;27.00;51.69
10097;BME280;5087;42.662;23.466;2023-08-12T10:18:59;95759.50;;;26.70;51.04
10097;BME280;5087;42.662;23.466;2023-08-12T10:21:28;95761.16;;;25.51;54.70
10097;BME280;5087;42.662;23.466;2023-08-12T10:23:57;95760.44;;;25.36;54.80
10097;BME280;5087;42.662;23.466;2023-08-12T10:26:25;95754.56;;;25.90;53.75
10097;BME280;5087;42.662;23.466;2023-08-12T10:28:54;95755.56;;;25.58;57.13
10097;BME280;5087;42.662;23.466;2023-08-12T10:31:27;95746.19;;;25.27;55.95
10097;BME280;5087;42.662;23.466;2023-08-12T10:33:57;95754.03;;;25.50;55.79
10097;BME280;5087;42.662;23.466;2023-08-12T10:36:25;95741.59;;;27.06;53.11
10097;BME280;5087;42.662;23.466;2023-08-12T10:38:53;95743.16;;;27.41;52.05
10097;BME280;5087;42.662;23.466;2023-08-12T10:41:21;95741.16;;;26.73;52.24
10097;BME280;5087;42.662;23.466;2023-08-12T10:43:51;95742.31;;;26.37;51.11
10097;BME280;5087;42.662;23.466;2023-08-12T10:46:26;95743.78;;;26.91;50.63
10097;BME280;5087;42.662;23.466;2023-08-12T10:49:04;95731.53;;;26.43;50.45
10097;BME280;5087;42.662;23.466;2023-08-12T10:51:46;95717.59;;;27.77;48.45
10097;BME280;5087;42.662;23.466;2023-08-12T10:54:14;95720.56;;;28.18;46.12
10097;BME280;5087;42.662;23.466;2023-08-12T10:57:04;95714.38;;;28.74;44.64
10097;BME280;5087;42.662;23.466;2023-08-12T10:59:48;95710.44;;;27.76;47.68
10097;BME280;5087;42.662;23.466;2023-08-12T11:02:16;95717.63;;;27.15;50.00
10097;BME280;5087;42.662;23.466;2023-08-12T11:04:48;95709.16;;;27.54;47.45
10097;BME280;5087;42.662;23.466;2023-08-12T11:07:16;95712.41;;;26.83;49.77
10097;BME280;5087;42.662;23.466;2023-08-12T11:09:45;95715.28;;;25.81;49.52
10097;BME280;5087;42.662;23.466;2023-08-12T11:12:17;95694.47;;;26.04;49.98
10097;BME280;5087;42.662;23.466;2023-08-12T11:14:48;95706.47;;;27.15;50.54
10097;BME280;5087;42.662;23.466;2023-08-12T11:17:15;95710.66;;;26.62;46.60
10097;BME280;5087;42.662;23.466;2023-08-12T11:19:43;95707.31;;;26.36;45.64
10097;BME280;5087;42.662;23.466;2023-08-12T11:22:22;95701.81;;;26.29;45.76
10097;BME280;5087;42.662;23.466;2023-08-12T11:24:50;95702.53;;;26.36;43.63
10097;BME280;5087;42.662;23.466;2023-08-12T11:27:18;95706.63;;;27.63;44.81
10097;BME280;5087;42.662;23.466;2023-08-12T11:29:45;95685.06;;;28.62;42.78
10097;BME280;5087;42.662;23.466;2023-08-12T11:32:13;95698.56;;;27.10;42.62
10097;BME280;5087;42.662;23.466;2023-08-12T11:34:40;95692.13;;;27.75;41.61
10097;BME280;5087;42.662;23.466;2023-08-12T11:37:08;95678.22;;;26.82;42.50
10097;BME280;5087;42.662;23.466;2023-08-12T11:39:37;95689.84;;;27.08;44.42
10097;BME280;5087;42.662;23.466;2023-08-12T11:42:05;95676.44;;;26.96;42.00
10097;BME280;5087;42.662;23.466;2023-08-12T11:44:32;95680.31;;;28.15;42.39
10097;BME280;5087;42.662;23.466;2023-08-12T11:47:00;95675.50;;;28.19;41.07
10097;BME280;5087;42.662;23.466;2023-08-12T11:49:28;95665.56;;;27.91;42.48
10097;BME280;5087;42.662;23.466;2023-08-12T11:51:55;95676.81;;;27.60;43.48
10097;BME280;5087;42.662;23.466;2023-08-12T11:54:23;95663.63;;;27.02;44.73
10097;BME280;5087;42.662;23.466;2023-08-12T11:56:52;95667.25;;;27.30;45.94
10097;BME280;5087;42.662;23.466;2023-08-12T11:59:21;95674.22;;;26.83;46.29
10097;BME280;5087;42.662;23.466;2023-08-12T12:01:49;95659.50;;;27.14;46.68
10097;BME280;5087;42.662;23.466;2023-08-12T12:04:20;95663.03;;;28.00;45.81
10097;BME280;5087;42.662;23.466;2023-08-12T12:06:48;95663.88;;;27.97;43.77
10097;BME280;5087;42.662;23.466;2023-08-12T12:09:16;95665.41;;;26.89;47.21
10097;BME280;5087;42.662;23.466;2023-08-12T12:11:46;95659.00;;;27.23;48.11
10097;BME280;5087;42.662;23.466;2023-08-12T12:14:18;95660.09;;;27.84;47.47
10097;BME280;5087;42.662;23.466;2023-08-12T12:16:47;95653.28;;;27.61;46.31
10097;BME280;5087;42.662;23.466;2023-08-12T12:19:16;95644.81;;;27.92;46.38
10097;BME280;5087;42.662;23.466;2023-08-12T12:21:45;95666.63;;;26.49;49.55
10097;BME280;5087;42.662;23.466;2023-08-12T12:24:17;95650.34;;;27.72;49.09
10097;BME280;5087;42.662;23.466;2023-08-12T12:26:44;95634.56;;;27.61;47.95
10097;BME280;5087;42.662;23.466;2023-08-12T12:29:17;95653.41;;;26.57;48.29
10097;BME280;5087;42.662;23.466;2023-08-12T12:31:44;95642.19;;;27.30;47.68
10097;BME280;5087;42.662;23.466;2023-08-12T12:34:11;95656.81;;;26.72;45.64
10097;BME280;5087;42.662;23.466;2023-08-12T12:36:40;95649.78;;;27.26;45.50
10097;BME280;5087;42.662;23.466;2023-08-12T12:39:07;95647.47;;;27.21;47.28
10097;BME280;5087;42.662;23.466;2023-08-12T12:41:34;95643.69;;;27.35;45.16
10097;BME280;5087;42.662;23.466;2023-08-12T12:44:02;95647.81;;;26.95;47.65
10097;BME280;5087;42.662;23.466;2023-08-12T12:46:33;95643.50;;;27.49;47.53
10097;BME280;5087;42.662;23.466;2023-08-12T12:49:02;95645.13;;;26.53;48.90
10097;BME280;5087;42.662;23.466;2023-08-12T12:51:29;95623.28;;;26.06;48.62
10097;BME280;5087;42.662;23.466;2023-08-12T12:53:57;95632.09;;;26.43;47.07
10097;BME280;5087;42.662;23.466;2023-08-12T12:56:24;95633.47;;;26.62;49.52
10097;BME280;5087;42.662;23.466;2023-08-12T12:58:51;95633.81;;;25.88;51.72
10097;BME280;5087;42.662;23.466;2023-08-12T13:01:18;95634.66;;;25.81;53.13